Flight Track Log - Related Links

Times and Time Zones

All times are in EDT time to prevent confusion due to time zone crossing. See the BJS542 flight status page for this flight to view local times or setup timezone preferences in your user account.

Time Position Orientation Groundspeed Altitude Reporting Facility
EDT Latitude Longitude Course Direction KTS MPH feet Rate Location/Type
Tue 05:53:48 PM 39.8667 -75.2667 270° West 146 168 900  Level Philadelphia TRACON
Tue 05:55:12 PM 39.8667 -75.3500 270° West 215 247 4,000 1,348 Climbing Philadelphia TRACON
Tue 05:56:06 PM 39.9333 -75.3500 360° North 277 319 4,000  Level Philadelphia TRACON
Tue 05:57:12 PM 40.0167 -75.3667 351° North 261 300 4,000  Level Philadelphia TRACON
Tue 05:58:12 PM 40.0833 -75.3833 349° North 258 297 4,000  Level Philadelphia TRACON
Tue 05:59:12 PM 40.1500 -75.3833 360° North 254 292 4,000  Level Philadelphia TRACON
Tue 06:00:18 PM 40.2333 -75.4000 351° North 264 304 4,000 262 Level Philadelphia TRACON
Tue 06:02:00 PM 40.4288 -75.3850 North  Level FlightAware Approximate
Tue 06:09:00 PM 41.2369 -75.4658 357° North  Level FlightAware Approximate
Tue 06:10:00 PM 41.3520 -75.4667 North  Level FlightAware Approximate
Tue 06:11:00 PM 41.4679 -75.4628 67° East  Level FlightAware Approximate
Tue 06:12:00 PM 41.5138 -75.3178 67° East  Level FlightAware Approximate
Tue 06:13:00 PM 41.5596 -75.1727 67° East  Level FlightAware Approximate
Tue 06:14:00 PM 41.6051 -75.0274 67° East  Level FlightAware Approximate
Tue 06:15:00 PM 41.6504 -74.8819 70° East  Level FlightAware Approximate
Tue 06:16:00 PM 41.6910 -74.7337 70° East  Level FlightAware Approximate
Tue 06:17:00 PM 41.7314 -74.5854 70° East  Level FlightAware Approximate
Tue 06:18:00 PM 41.7737 -74.4380 68° East  Level FlightAware Approximate
Tue 06:18:19 PM 41.4939 -75.4278 100° East 306 352 9,000  Level Boston Center
Tue 06:19:00 PM 41.8177 -74.2914 68° East  Level FlightAware Approximate
Tue 06:19:19 PM 41.5281 -75.3158 68° East 317 365 9,000  Level Boston Center
Tue 06:20:00 PM 41.8419 -74.1430 105° East  Level FlightAware Approximate
Tue 06:20:19 PM 41.5622 -75.2036 68° East 317 365 10,000  Level Boston Center
Tue 06:21:00 PM 41.8186 -73.9881 100° East  Level FlightAware Approximate
Tue 06:21:19 PM 41.6050 -75.0611 68° East 351 404 10,000  Level Boston Center
Tue 06:22:00 PM 41.7979 -73.8324 100° East  Level FlightAware Approximate
Tue 06:22:19 PM 41.6411 -74.9431 68° East 368 423 10,000  Level Boston Center
Tue 06:23:00 PM 41.7771 -73.6768 100° East  Level FlightAware Approximate
Tue 06:23:19 PM 41.6881 -74.8003 66° East 373 429 10,800  Level Boston Center
Tue 06:24:19 PM 41.7258 -74.6819 67° East 378 435 13,000 1,600 Climbing Boston Center
Tue 06:25:19 PM 41.7767 -74.5364 65° Northeast 378 435 14,000 2,000 Climbing Boston Center
Tue 06:26:19 PM 41.8119 -74.4233 67° East 380 437 17,000 1,500 Climbing Boston Center
Tue 06:27:19 PM 41.8603 -74.2714 67° East 387 445 17,000  Level Boston Center
Tue 06:28:19 PM 41.8997 -74.1472 67° East 397 457 17,000  Level Boston Center
Tue 06:29:19 PM 41.9456 -74.0031 67° East 404 465 17,000  Level Boston Center
Tue 06:30:19 PM 41.9936 -73.8481 67° East 404 465 17,000  Level Boston Center
Tue 06:31:19 PM 42.0411 -73.7064 66° East 409 471 17,000 50 Level Boston Center
Tue 06:32:19 PM 42.0864 -73.5619 67° East 414 476 17,100  Climbing Boston Center
Tue 06:33:19 PM 42.1314 -73.4172 67° East 414 476 17,000 -50 Descending Boston Center
Tue 06:34:19 PM 42.1722 -73.2889 67° East 414 476 17,000  Level Boston Center
Tue 06:35:19 PM 42.2189 -73.1381 67° East 406 467 17,000  Level Boston Center
Tue 06:36:19 PM 42.2594 -73.0122 66° East 399 459 17,000 50 Level Boston Center
Tue 06:37:19 PM 42.3039 -72.8583 69° East 392 451 17,100  Climbing Boston Center
Tue 06:38:19 PM 42.3375 -72.7519 67° East 392 451 17,000 -50 Descending Boston Center
Tue 06:39:19 PM 42.3836 -72.6003 68° East 387 445 17,000  Level Boston Center

Login

Don't have an account? Register now (free) for customized features, flight alerts, and more!